createdAt,value
2022-08-07T00:00:33.095Z,1007.22
2022-08-07T00:01:44.394Z,1007.28
2022-08-07T00:02:36.648Z,1007.25
2022-08-07T00:03:36.616Z,1007.31
2022-08-07T00:04:33.105Z,1007.27
2022-08-07T00:05:33.034Z,1007.26
2022-08-07T00:06:33.795Z,1007.27
2022-08-07T00:07:40.788Z,1007.25
2022-08-07T00:08:33.647Z,1007.29
2022-08-07T00:09:35.586Z,1007.31
2022-08-07T00:10:32.907Z,1007.25
2022-08-07T00:11:33.165Z,1007.28
2022-08-07T00:12:32.873Z,1007.25
2022-08-07T00:13:32.860Z,1007.24
2022-08-07T00:14:32.866Z,1007.23
2022-08-07T00:15:38.411Z,1007.25
2022-08-07T00:16:32.798Z,1007.25
2022-08-07T00:17:35.313Z,1007.23
2022-08-07T00:18:32.856Z,1007.24
2022-08-07T00:20:00.644Z,1007.22
2022-08-07T00:20:34.494Z,1007.25
2022-08-07T00:21:56.148Z,1007.20
2022-08-07T00:22:34.921Z,1007.19
2022-08-07T00:23:32.684Z,1007.21
2022-08-07T00:24:32.686Z,1007.22
2022-08-07T00:25:37.590Z,1007.20
2022-08-07T00:26:49.504Z,1007.24
2022-08-07T00:27:35.803Z,1007.20
2022-08-07T00:28:33.319Z,1007.21
2022-08-07T00:29:32.575Z,1007.19
2022-08-07T00:30:32.579Z,1007.20
2022-08-07T00:31:37.466Z,1007.21
2022-08-07T00:32:32.529Z,1007.25
2022-08-07T00:33:32.949Z,1007.24
2022-08-07T00:34:32.497Z,1007.22
2022-08-07T00:35:32.495Z,1007.23
2022-08-07T00:36:32.502Z,1007.24
2022-08-07T00:37:48.106Z,1007.27
2022-08-07T00:38:33.265Z,1007.22
2022-08-07T00:39:32.484Z,1007.24
2022-08-07T00:40:40.079Z,1007.23
2022-08-07T00:41:32.358Z,1007.26
2022-08-07T00:42:32.351Z,1007.26
2022-08-07T00:44:01.246Z,1007.24
2022-08-07T00:44:33.548Z,1007.26
2022-08-07T00:45:32.287Z,1007.24
2022-08-07T00:46:33.941Z,1007.24
2022-08-07T00:48:07.570Z,1007.23
2022-08-07T00:48:32.675Z,1007.25
2022-08-07T00:50:19.337Z,1007.25
2022-08-07T00:50:46.248Z,1007.19
2022-08-07T00:51:58.347Z,1007.22
2022-08-07T00:52:33.293Z,1007.27
2022-08-07T00:53:38.415Z,1007.27
2022-08-07T00:54:32.129Z,1007.33
2022-08-07T00:56:03.180Z,1007.31
2022-08-07T00:56:34.025Z,1007.27
2022-08-07T00:57:34.011Z,1007.30
2022-08-07T00:58:32.056Z,1007.27
2022-08-07T00:59:35.048Z,1007.26
2022-08-07T01:00:32.051Z,1007.27
2022-08-07T01:01:44.073Z,1007.24
2022-08-07T01:02:31.987Z,1007.25
2022-08-07T01:03:54.703Z,1007.27
2022-08-07T01:04:32.809Z,1007.26
2022-08-07T01:05:32.660Z,1007.29
2022-08-07T01:06:31.950Z,1007.27
2022-08-07T01:07:32.011Z,1007.24
2022-08-07T01:08:31.963Z,1007.22
2022-08-07T01:10:05.367Z,1007.18
2022-08-07T01:10:31.837Z,1007.24
2022-08-07T01:12:27.623Z,1007.21
2022-08-07T01:12:31.831Z,1007.19
2022-08-07T01:13:35.217Z,1007.23
2022-08-07T01:14:31.768Z,1007.26
2022-08-07T01:15:36.128Z,1007.24
2022-08-07T01:16:31.780Z,1007.24
2022-08-07T01:17:31.718Z,1007.25
2022-08-07T01:18:31.699Z,1007.21
2022-08-07T01:19:32.586Z,1007.24
2022-08-07T01:20:31.692Z,1007.25
2022-08-07T01:21:31.648Z,1007.26
2022-08-07T01:22:31.642Z,1007.28
2022-08-07T01:23:36.779Z,1007.25
2022-08-07T01:24:31.604Z,1007.28
2022-08-07T01:25:54.930Z,1007.26
2022-08-07T01:26:31.560Z,1007.28
2022-08-07T01:27:32.253Z,1007.28
2022-08-07T01:28:31.548Z,1007.27
2022-08-07T01:29:33.971Z,1007.24
2022-08-07T01:30:32.168Z,1007.29
2022-08-07T01:31:42.349Z,1007.27
2022-08-07T01:32:31.454Z,1007.28
2022-08-07T01:33:53.800Z,1007.30
2022-08-07T01:34:32.182Z,1007.30
2022-08-07T01:35:52.730Z,1007.30
2022-08-07T01:36:33.745Z,1007.32
2022-08-07T01:37:31.375Z,1007.37
2022-08-07T01:38:31.353Z,1007.35
2022-08-07T01:39:39.591Z,1007.36
2022-08-07T01:40:31.327Z,1007.36
2022-08-07T01:41:31.333Z,1007.35
2022-08-07T01:42:39.639Z,1007.34
2022-08-07T01:43:34.595Z,1007.37
2022-08-07T01:44:31.247Z,1007.36
2022-08-07T01:45:36.446Z,1007.38
2022-08-07T01:46:31.329Z,1007.36
2022-08-07T01:48:20.416Z,1007.39
2022-08-07T01:48:31.238Z,1007.40
2022-08-07T01:49:31.889Z,1007.41
2022-08-07T01:50:31.134Z,1007.44
2022-08-07T01:52:01.635Z,1007.44
2022-08-07T01:52:31.099Z,1007.46
2022-08-07T01:54:12.008Z,1007.47
2022-08-07T01:54:33.111Z,1007.48
2022-08-07T01:55:33.504Z,1007.52
2022-08-07T01:56:31.023Z,1007.49
2022-08-07T01:58:01.023Z,1007.50
2022-08-07T01:58:33.133Z,1007.51
2022-08-07T01:59:31.717Z,1007.49
2022-08-07T02:00:30.955Z,1007.50
2022-08-07T02:02:00.089Z,1007.56
2022-08-07T02:03:12.247Z,1007.51
2022-08-07T02:03:42.722Z,1007.55
2022-08-07T02:04:30.951Z,1007.57
2022-08-07T02:05:48.307Z,1007.60
2022-08-07T02:06:32.522Z,1007.57
2022-08-07T02:07:44.881Z,1007.59
2022-08-07T02:08:30.806Z,1007.53
2022-08-07T02:09:52.062Z,1007.60
2022-08-07T02:10:30.815Z,1007.57
2022-08-07T02:12:04.138Z,1007.55
2022-08-07T02:12:30.943Z,1007.52
2022-08-07T02:13:56.415Z,1007.57
2022-08-07T02:14:40.215Z,1007.50
2022-08-07T02:15:30.716Z,1007.54
2022-08-07T02:16:33.280Z,1007.56
2022-08-07T02:17:34.045Z,1007.55
2022-08-07T02:18:30.654Z,1007.54
2022-08-07T02:20:05.206Z,1007.56
2022-08-07T02:20:30.606Z,1007.54
2022-08-07T02:21:55.329Z,1007.54
2022-08-07T02:22:30.579Z,1007.53
2022-08-07T02:23:30.570Z,1007.52
2022-08-07T02:24:30.544Z,1007.54
2022-08-07T02:26:10.734Z,1007.58
2022-08-07T02:26:34.655Z,1007.56
2022-08-07T02:27:30.525Z,1007.61
2022-08-07T02:28:30.457Z,1007.60
2022-08-07T02:29:30.504Z,1007.65
2022-08-07T02:30:30.440Z,1007.62
2022-08-07T02:31:30.429Z,1007.68
2022-08-07T02:32:33.210Z,1007.65
2022-08-07T02:33:42.094Z,1007.64
2022-08-07T02:34:30.350Z,1007.64
2022-08-07T02:36:28.479Z,1007.67
2022-08-07T02:36:32.535Z,1007.64
2022-08-07T02:37:34.149Z,1007.62
2022-08-07T02:38:31.915Z,1007.67
2022-08-07T02:39:43.004Z,1007.68
2022-08-07T02:40:34.921Z,1007.64
2022-08-07T02:41:37.187Z,1007.64
2022-08-07T02:42:30.200Z,1007.66
2022-08-07T02:43:30.202Z,1007.67
2022-08-07T02:44:34.786Z,1007.67
2022-08-07T02:45:58.416Z,1007.69
2022-08-07T02:46:30.124Z,1007.65
2022-08-07T02:47:44.929Z,1007.72
2022-08-07T02:48:30.127Z,1007.73
2022-08-07T02:49:57.643Z,1007.71
2022-08-07T02:50:30.904Z,1007.72
2022-08-07T02:51:42.389Z,1007.77
2022-08-07T02:52:31.157Z,1007.74
2022-08-07T02:53:30.014Z,1007.74
2022-08-07T02:54:29.979Z,1007.78
2022-08-07T02:56:02.006Z,1007.78
2022-08-07T02:56:29.975Z,1007.78
2022-08-07T02:57:30.950Z,1007.80
2022-08-07T02:58:29.910Z,1007.79
2022-08-07T02:59:29.903Z,1007.80
2022-08-07T03:00:30.149Z,1007.83
2022-08-07T03:01:35.823Z,1007.84
2022-08-07T03:02:29.832Z,1007.82
2022-08-07T03:03:49.523Z,1007.82
2022-08-07T03:04:29.831Z,1007.82
2022-08-07T03:05:35.851Z,1007.84
2022-08-07T03:06:33.322Z,1007.83
2022-08-07T03:08:04.601Z,1007.88
2022-08-07T03:08:29.742Z,1007.85
2022-08-07T03:09:42.198Z,1007.89
2022-08-07T03:10:29.691Z,1007.89
2022-08-07T03:11:32.710Z,1007.89
2022-08-07T03:12:30.984Z,1007.94
2022-08-07T03:13:29.637Z,1007.93
2022-08-07T03:14:29.620Z,1007.95
2022-08-07T03:15:47.737Z,1008.01
2022-08-07T03:16:30.419Z,1008.00
2022-08-07T03:17:29.916Z,1008.03
2022-08-07T03:18:34.184Z,1008.04
2022-08-07T03:19:36.964Z,1008.08
2022-08-07T03:20:29.535Z,1008.11
2022-08-07T03:21:33.175Z,1008.06
2022-08-07T03:22:30.444Z,1008.07
2022-08-07T03:23:33.360Z,1008.12
2022-08-07T03:24:29.462Z,1008.12
2022-08-07T03:25:32.454Z,1008.10
2022-08-07T03:26:30.215Z,1008.10
2022-08-07T03:27:30.815Z,1008.18
2022-08-07T03:28:38.443Z,1008.13
2022-08-07T03:29:29.381Z,1008.17
2022-08-07T03:30:29.344Z,1008.17
2022-08-07T03:31:42.867Z,1008.16
2022-08-07T03:32:29.320Z,1008.19
2022-08-07T03:33:32.299Z,1008.19
2022-08-07T03:34:29.274Z,1008.21
2022-08-07T03:35:43.796Z,1008.22
2022-08-07T03:36:29.237Z,1008.23
2022-08-07T03:37:29.411Z,1008.20
2022-08-07T03:38:29.869Z,1008.22
2022-08-07T03:39:59.740Z,1008.24
2022-08-07T03:40:36.225Z,1008.26
2022-08-07T03:41:42.459Z,1008.27
2022-08-07T03:42:29.123Z,1008.26
2022-08-07T03:43:32.302Z,1008.26
2022-08-07T03:44:34.393Z,1008.27
2022-08-07T03:45:30.322Z,1008.28
2022-08-07T03:46:29.086Z,1008.28
2022-08-07T03:47:48.065Z,1008.29
2022-08-07T03:48:29.744Z,1008.30
2022-08-07T03:49:29.017Z,1008.27
2022-08-07T03:50:29.095Z,1008.27
2022-08-07T03:51:30.928Z,1008.30
2022-08-07T03:52:28.949Z,1008.31
2022-08-07T03:53:50.238Z,1008.30
2022-08-07T03:54:36.002Z,1008.36
2022-08-07T03:55:57.449Z,1008.37
2022-08-07T03:56:32.528Z,1008.36
2022-08-07T03:58:35.204Z,1008.34
2022-08-07T03:59:03.786Z,1008.39
2022-08-07T03:59:28.854Z,1008.40
2022-08-07T04:00:30.508Z,1008.41
2022-08-07T04:01:28.849Z,1008.44
2022-08-07T04:02:28.796Z,1008.45
2022-08-07T04:03:28.782Z,1008.41
2022-08-07T04:04:28.756Z,1008.48
2022-08-07T04:05:40.188Z,1008.43
2022-08-07T04:06:37.761Z,1008.51
2022-08-07T04:07:36.135Z,1008.48
2022-08-07T04:08:28.677Z,1008.51
2022-08-07T04:09:38.047Z,1008.56
2022-08-07T04:10:29.481Z,1008.55
2022-08-07T04:12:15.354Z,1008.56
2022-08-07T04:12:29.085Z,1008.55
2022-08-07T04:13:28.585Z,1008.54
2022-08-07T04:14:37.599Z,1008.57
2022-08-07T04:15:28.564Z,1008.57
2022-08-07T04:16:31.358Z,1008.57
2022-08-07T04:18:30.876Z,1008.62
2022-08-07T04:18:58.299Z,1008.59
2022-08-07T04:19:51.165Z,1008.64
2022-08-07T04:20:28.481Z,1008.68
2022-08-07T04:21:31.814Z,1008.66
2022-08-07T04:22:29.191Z,1008.64
2022-08-07T04:23:43.871Z,1008.68
2022-08-07T04:24:33.628Z,1008.68
2022-08-07T04:25:29.597Z,1008.69
2022-08-07T04:26:28.810Z,1008.71
2022-08-07T04:27:28.463Z,1008.72
2022-08-07T04:28:28.349Z,1008.73
2022-08-07T04:29:30.466Z,1008.71
2022-08-07T04:30:39.360Z,1008.73
2022-08-07T04:31:39.187Z,1008.73
2022-08-07T04:32:34.327Z,1008.75
2022-08-07T04:33:28.262Z,1008.78
2022-08-07T04:34:33.267Z,1008.76
2022-08-07T04:35:35.086Z,1008.79
2022-08-07T04:36:28.209Z,1008.81
2022-08-07T04:37:28.806Z,1008.80
2022-08-07T04:38:28.796Z,1008.79
2022-08-07T04:39:28.196Z,1008.80
2022-08-07T04:40:30.050Z,1008.79
2022-08-07T04:41:28.229Z,1008.81
2022-08-07T04:42:28.707Z,1008.85
2022-08-07T04:44:09.771Z,1008.80
2022-08-07T04:44:28.055Z,1008.90
2022-08-07T04:45:57.831Z,1008.91
2022-08-07T04:46:29.422Z,1008.91
2022-08-07T04:48:01.058Z,1008.89
2022-08-07T04:48:27.989Z,1008.89
2022-08-07T04:49:27.988Z,1008.90
2022-08-07T04:50:27.993Z,1008.94
2022-08-07T04:51:27.950Z,1008.96
2022-08-07T04:52:27.925Z,1008.95
2022-08-07T04:54:01.807Z,1008.95
2022-08-07T04:54:30.082Z,1008.94
2022-08-07T04:58:09.386Z,1008.96
2022-08-07T04:58:12.544Z,1008.99
2022-08-07T04:58:16.822Z,1008.92
2022-08-07T04:58:49.661Z,1008.97
2022-08-07T05:00:11.564Z,1009.01
2022-08-07T05:00:30.576Z,1009.01
2022-08-07T05:01:30.743Z,1009.01
2022-08-07T05:02:27.769Z,1009.04
2022-08-07T05:04:00.957Z,1009.01
2022-08-07T05:04:27.761Z,1009.04
2022-08-07T05:05:54.144Z,1009.05
2022-08-07T05:06:28.078Z,1009.03
2022-08-07T05:07:36.634Z,1009.05
2022-08-07T05:08:59.023Z,1009.08
2022-08-07T05:09:43.014Z,1009.07
2022-08-07T05:10:27.649Z,1009.09
2022-08-07T05:11:27.626Z,1009.09
2022-08-07T05:12:30.599Z,1009.15
2022-08-07T05:14:52.969Z,1009.13
2022-08-07T05:14:53.404Z,1009.19
2022-08-07T05:15:27.562Z,1009.13
2022-08-07T05:16:27.556Z,1009.16
2022-08-07T05:18:00.829Z,1009.16
2022-08-07T05:18:27.561Z,1009.19
2022-08-07T05:19:32.826Z,1009.25
2022-08-07T05:20:27.501Z,1009.20
2022-08-07T05:22:00.365Z,1009.22
2022-08-07T05:22:27.890Z,1009.24
2022-08-07T05:23:29.839Z,1009.23
2022-08-07T05:24:30.606Z,1009.27
2022-08-07T05:25:54.440Z,1009.22
2022-08-07T05:26:27.423Z,1009.23
2022-08-07T05:28:03.202Z,1009.25
2022-08-07T05:28:27.843Z,1009.31
2022-08-07T05:29:27.356Z,1009.29
2022-08-07T05:30:30.366Z,1009.28
2022-08-07T05:31:35.270Z,1009.34
2022-08-07T05:32:27.355Z,1009.24
2022-08-07T05:33:27.331Z,1009.26
2022-08-07T05:34:27.724Z,1009.28
2022-08-07T05:35:33.526Z,1009.26
2022-08-07T05:36:30.321Z,1009.26
2022-08-07T05:37:27.484Z,1009.29
2022-08-07T05:39:00.907Z,1009.31
2022-08-07T05:40:05.731Z,1009.30
2022-08-07T05:40:28.638Z,1009.33
2022-08-07T05:42:00.450Z,1009.33
2022-08-07T05:42:33.406Z,1009.33
2022-08-07T05:43:49.832Z,1009.32
2022-08-07T05:44:29.623Z,1009.38
2022-08-07T05:45:46.804Z,1009.32
2022-08-07T05:46:27.143Z,1009.30
2022-08-07T05:47:38.170Z,1009.34
2022-08-07T05:48:27.151Z,1009.39
2022-08-07T05:49:27.081Z,1009.37
2022-08-07T05:50:27.070Z,1009.36
2022-08-07T05:51:31.553Z,1009.36
2022-08-07T05:52:32.468Z,1009.35
2022-08-07T05:54:14.151Z,1009.32
2022-08-07T05:54:30.310Z,1009.34
2022-08-07T05:56:02.439Z,1009.34
2022-08-07T05:56:30.135Z,1009.38
2022-08-07T05:57:30.470Z,1009.36
2022-08-07T05:58:36.366Z,1009.38
2022-08-07T05:59:27.478Z,1009.43
2022-08-07T06:00:26.933Z,1009.39
2022-08-07T06:01:26.977Z,1009.36
2022-08-07T06:02:29.145Z,1009.38
2022-08-07T06:03:53.725Z,1009.39
2022-08-07T06:04:30.281Z,1009.45
2022-08-07T06:05:28.546Z,1009.43
2022-08-07T06:06:29.405Z,1009.40
2022-08-07T06:08:29.036Z,1009.45
2022-08-07T06:08:30.738Z,1009.44
2022-08-07T06:09:45.078Z,1009.40
2022-08-07T06:10:26.802Z,1009.48
2022-08-07T06:11:26.807Z,1009.49
2022-08-07T06:12:27.813Z,1009.47
2022-08-07T06:14:12.583Z,1009.48
2022-08-07T06:14:30.324Z,1009.54
2022-08-07T06:15:38.562Z,1009.58
2022-08-07T06:16:28.223Z,1009.54
2022-08-07T06:17:30.558Z,1009.59
2022-08-07T06:18:27.980Z,1009.57
2022-08-07T06:19:52.353Z,1009.58
2022-08-07T06:20:49.963Z,1009.51
2022-08-07T06:22:14.426Z,1009.57
2022-08-07T06:22:27.289Z,1009.52
2022-08-07T06:24:36.992Z,1009.57
2022-08-07T06:24:45.642Z,1009.57
2022-08-07T06:25:26.607Z,1009.52
2022-08-07T06:26:27.504Z,1009.57
2022-08-07T06:27:44.249Z,1009.57
2022-08-07T06:28:27.164Z,1009.55
2022-08-07T06:29:26.605Z,1009.54
2022-08-07T06:30:36.246Z,1009.61
2022-08-07T06:31:46.789Z,1009.54
2022-08-07T06:32:29.420Z,1009.58
2022-08-07T06:33:26.576Z,1009.60
2022-08-07T06:34:30.493Z,1009.62
2022-08-07T06:35:30.700Z,1009.60
2022-08-07T06:36:35.033Z,1009.62
2022-08-07T06:37:26.470Z,1009.61
2022-08-07T06:38:28.516Z,1009.63
2022-08-07T06:40:17.985Z,1009.62
2022-08-07T06:40:32.359Z,1009.61
2022-08-07T06:42:00.940Z,1009.66
2022-08-07T06:42:32.847Z,1009.63
2022-08-07T06:43:26.724Z,1009.61
2022-08-07T06:44:26.417Z,1009.67
2022-08-07T06:45:26.402Z,1009.61
2022-08-07T06:46:31.402Z,1009.62
2022-08-07T06:47:27.004Z,1009.66
2022-08-07T06:48:26.337Z,1009.68
2022-08-07T06:49:26.349Z,1009.68
2022-08-07T06:50:26.341Z,1009.70
2022-08-07T06:51:33.359Z,1009.71
2022-08-07T06:52:31.404Z,1009.74
2022-08-07T06:55:28.913Z,1009.70
2022-08-07T06:55:33.997Z,1009.74
2022-08-07T06:55:33.997Z,1009.71
2022-08-07T06:56:26.279Z,1009.71
2022-08-07T06:57:39.331Z,1009.78
2022-08-07T06:58:27.596Z,1009.75
2022-08-07T07:00:12.662Z,1009.79
2022-08-07T07:00:26.206Z,1009.81
2022-08-07T07:01:26.229Z,1009.83
2022-08-07T07:02:48.488Z,1009.87
2022-08-07T07:03:39.915Z,1009.85
2022-08-07T07:04:28.152Z,1009.87
2022-08-07T07:06:02.600Z,1009.86
2022-08-07T07:06:26.738Z,1009.85
2022-08-07T07:08:00.331Z,1009.90
2022-08-07T07:08:26.665Z,1009.88
2022-08-07T07:09:26.092Z,1009.90
2022-08-07T07:10:26.565Z,1009.95
2022-08-07T07:12:08.960Z,1009.93
2022-08-07T07:12:31.073Z,1009.92
2022-08-07T07:13:55.765Z,1009.92
2022-08-07T07:14:26.095Z,1009.92
2022-08-07T07:15:26.495Z,1009.92
2022-08-07T07:16:27.524Z,1009.93
2022-08-07T07:17:28.903Z,1009.93
2022-08-07T07:18:47.315Z,1009.96
2022-08-07T07:19:56.579Z,1009.93
2022-08-07T07:20:26.862Z,1009.95
2022-08-07T07:21:27.079Z,1009.95
2022-08-07T07:22:36.161Z,1009.94
2022-08-07T07:24:08.577Z,1009.96
2022-08-07T07:24:25.951Z,1009.95
2022-08-07T07:26:32.403Z,1009.91
2022-08-07T07:26:35.672Z,1009.92
2022-08-07T07:27:25.898Z,1009.97
2022-08-07T07:28:42.436Z,1009.93
2022-08-07T07:29:57.196Z,1009.92
2022-08-07T07:30:32.491Z,1009.97
2022-08-07T07:31:25.859Z,1009.93
2022-08-07T07:32:25.844Z,1010.01
2022-08-07T07:33:25.834Z,1010.01
2022-08-07T07:34:30.673Z,1010.00
2022-08-07T07:35:25.834Z,1010.00
2022-08-07T07:36:32.324Z,1009.96
2022-08-07T07:37:49.776Z,1009.97
2022-08-07T07:38:25.783Z,1009.98
2022-08-07T07:39:25.903Z,1009.99
2022-08-07T07:40:26.332Z,1009.98
2022-08-07T07:41:31.022Z,1010.00
2022-08-07T07:42:33.019Z,1010.01
2022-08-07T07:43:27.461Z,1009.99
2022-08-07T07:44:26.637Z,1010.02
2022-08-07T07:46:35.642Z,1010.06
2022-08-07T07:46:38.199Z,1010.06
2022-08-07T07:47:25.735Z,1010.02
2022-08-07T07:48:36.083Z,1009.99
2022-08-07T07:50:34.581Z,1010.04
2022-08-07T07:50:35.392Z,1010.01
2022-08-07T07:51:25.652Z,1010.02
2022-08-07T07:52:25.651Z,1010.00
2022-08-07T07:53:25.940Z,1010.02
2022-08-07T07:54:25.657Z,1010.03
2022-08-07T07:55:25.646Z,1010.03
2022-08-07T07:56:30.370Z,1009.99
2022-08-07T07:57:43.940Z,1010.05
2022-08-07T07:58:25.585Z,1010.03
2022-08-07T07:59:52.685Z,1010.04
2022-08-07T08:00:31.384Z,1010.03
2022-08-07T08:02:03.023Z,1010.01
2022-08-07T08:02:35.494Z,1010.03
2022-08-07T08:04:09.665Z,1010.04
2022-08-07T08:04:27.396Z,1010.02
2022-08-07T08:05:27.813Z,1010.06
2022-08-07T08:06:25.526Z,1010.07
2022-08-07T08:07:35.598Z,1010.06
2022-08-07T08:08:35.417Z,1010.15
2022-08-07T08:09:29.503Z,1010.12
2022-08-07T08:10:37.595Z,1010.10
2022-08-07T08:11:59.517Z,1010.10
2022-08-07T08:12:52.019Z,1010.10
2022-08-07T08:13:25.463Z,1010.09
2022-08-07T08:14:26.543Z,1010.07
2022-08-07T08:15:25.404Z,1010.08
2022-08-07T08:16:25.458Z,1010.09
2022-08-07T08:17:58.260Z,1010.06
2022-08-07T08:18:25.400Z,1010.04
2022-08-07T08:20:17.493Z,1010.07
2022-08-07T08:20:31.760Z,1010.08
2022-08-07T08:21:25.342Z,1010.06
2022-08-07T08:22:32.582Z,1010.09
2022-08-07T08:23:27.881Z,1010.12
2022-08-07T08:24:36.412Z,1010.04
2022-08-07T08:25:42.484Z,1010.14
2022-08-07T08:26:25.306Z,1010.09
2022-08-07T08:27:25.283Z,1010.14
2022-08-07T08:28:37.867Z,1010.09
2022-08-07T08:29:25.282Z,1010.10
2022-08-07T08:30:25.269Z,1010.08
2022-08-07T08:31:58.309Z,1010.12
2022-08-07T08:32:25.619Z,1010.19
2022-08-07T08:33:25.218Z,1010.11
2022-08-07T08:34:27.148Z,1010.10
2022-08-07T08:35:25.214Z,1010.05
2022-08-07T08:36:25.391Z,1010.07
2022-08-07T08:38:00.934Z,1010.04
2022-08-07T08:38:25.842Z,1010.10
2022-08-07T08:39:25.196Z,1010.09
2022-08-07T08:40:28.569Z,1010.10
2022-08-07T08:41:25.141Z,1010.10
2022-08-07T08:42:25.670Z,1010.12
2022-08-07T08:43:31.984Z,1010.11
2022-08-07T08:44:29.609Z,1010.10
2022-08-07T08:45:26.638Z,1010.12
2022-08-07T08:46:25.398Z,1010.11
2022-08-07T08:47:25.372Z,1010.10
2022-08-07T08:48:28.381Z,1010.15
2022-08-07T08:49:33.106Z,1010.11
2022-08-07T08:50:28.329Z,1010.13
2022-08-07T08:51:29.630Z,1010.11
2022-08-07T08:52:25.039Z,1010.17
2022-08-07T08:53:25.024Z,1010.18
2022-08-07T08:54:25.058Z,1010.18
2022-08-07T08:55:53.267Z,1010.20
2022-08-07T08:56:24.990Z,1010.18
2022-08-07T08:57:24.971Z,1010.15
2022-08-07T08:58:28.719Z,1010.18
2022-08-07T08:59:24.960Z,1010.21
2022-08-07T09:00:24.957Z,1010.19
2022-08-07T09:01:29.979Z,1010.19
2022-08-07T09:02:35.186Z,1010.17
2022-08-07T09:03:49.474Z,1010.21
2022-08-07T09:04:25.972Z,1010.15
2022-08-07T09:05:37.487Z,1010.18
2022-08-07T09:06:24.919Z,1010.19
2022-08-07T09:07:25.227Z,1010.24
2022-08-07T09:08:28.431Z,1010.22
2022-08-07T09:09:30.024Z,1010.20
2022-08-07T09:10:24.853Z,1010.19
2022-08-07T09:11:43.711Z,1010.23
2022-08-07T09:12:30.820Z,1010.12
2022-08-07T09:13:37.029Z,1010.17
2022-08-07T09:14:29.550Z,1010.16
2022-08-07T09:16:23.809Z,1010.20
2022-08-07T09:16:29.801Z,1010.18
2022-08-07T09:17:24.793Z,1010.15
2022-08-07T09:18:24.930Z,1010.13
2022-08-07T09:19:44.695Z,1010.22
2022-08-07T09:20:35.306Z,1010.11
2022-08-07T09:21:34.012Z,1010.15
2022-08-07T09:24:28.520Z,1010.22
2022-08-07T09:24:33.796Z,1010.14
2022-08-07T09:24:52.477Z,1010.17
2022-08-07T09:25:24.735Z,1010.14
2022-08-07T09:26:25.456Z,1010.18
2022-08-07T09:27:24.743Z,1010.18
2022-08-07T09:30:01.643Z,1010.21
2022-08-07T09:30:04.216Z,1010.25
2022-08-07T09:30:28.177Z,1010.22
2022-08-07T09:31:24.652Z,1010.17
2022-08-07T09:32:26.541Z,1010.20
2022-08-07T09:33:53.176Z,1010.19
2022-08-07T09:34:26.146Z,1010.22
2022-08-07T09:36:04.243Z,1010.22
2022-08-07T09:36:27.121Z,1010.14
2022-08-07T09:37:33.299Z,1010.16
2022-08-07T09:38:24.566Z,1010.29
2022-08-07T09:39:54.076Z,1010.15
2022-08-07T09:40:24.576Z,1010.25
2022-08-07T09:41:24.545Z,1010.17
2022-08-07T09:42:25.069Z,1010.20
2022-08-07T09:43:40.073Z,1010.17
2022-08-07T09:44:33.049Z,1010.22
2022-08-07T09:47:24.221Z,1010.19
2022-08-07T09:47:52.062Z,1010.21
2022-08-07T09:47:56.015Z,1010.25
2022-08-07T09:48:29.703Z,1010.23
2022-08-07T09:50:00.613Z,1010.23
2022-08-07T09:50:26.543Z,1010.21
2022-08-07T09:52:09.700Z,1010.22
2022-08-07T09:52:34.369Z,1010.22
2022-08-07T09:53:24.417Z,1010.21
2022-08-07T09:54:27.067Z,1010.24
2022-08-07T09:55:29.240Z,1010.20
2022-08-07T09:56:34.064Z,1010.21
2022-08-07T09:57:24.426Z,1010.19
2022-08-07T09:58:32.226Z,1010.21
2022-08-07T09:59:29.427Z,1010.21
2022-08-07T10:00:29.923Z,1010.26
2022-08-07T10:01:52.027Z,1010.22
2022-08-07T10:02:24.373Z,1010.22
2022-08-07T10:04:06.089Z,1010.25
2022-08-07T10:04:28.074Z,1010.19
2022-08-07T10:05:59.406Z,1010.22
2022-08-07T10:06:24.720Z,1010.16
2022-08-07T10:07:26.302Z,1010.16
2022-08-07T10:08:24.305Z,1010.19
2022-08-07T10:09:42.968Z,1010.14
2022-08-07T10:10:24.271Z,1010.10
2022-08-07T10:12:02.327Z,1010.08
2022-08-07T10:12:26.419Z,1010.07
2022-08-07T10:13:54.738Z,1010.07
2022-08-07T10:14:30.282Z,1010.09
2022-08-07T10:15:24.211Z,1010.02
2022-08-07T10:16:24.321Z,1010.06
2022-08-07T10:17:24.235Z,1010.03
2022-08-07T10:18:26.628Z,1010.09
2022-08-07T10:19:24.170Z,1010.11
2022-08-07T10:20:30.467Z,1010.09
2022-08-07T10:22:12.592Z,1010.07
2022-08-07T10:22:24.873Z,1010.10
2022-08-07T10:24:05.723Z,1010.09
2022-08-07T10:24:24.116Z,1010.05
2022-08-07T10:25:24.136Z,1009.99
2022-08-07T10:26:24.875Z,1009.95
2022-08-07T10:27:24.121Z,1010.01
2022-08-07T10:28:24.963Z,1010.05
2022-08-07T10:29:24.067Z,1010.02
2022-08-07T10:30:24.971Z,1009.99
2022-08-07T10:31:24.067Z,1010.01
2022-08-07T10:32:51.125Z,1010.00
2022-08-07T10:34:05.851Z,1010.01
2022-08-07T10:34:27.318Z,1009.97
2022-08-07T10:35:25.513Z,1009.99
2022-08-07T10:36:29.363Z,1009.96
2022-08-07T10:37:48.255Z,1010.02
2022-08-07T10:38:35.889Z,1009.96
2022-08-07T10:39:25.725Z,1010.03
2022-08-07T10:40:30.053Z,1009.95
2022-08-07T10:41:46.605Z,1009.93
2022-08-07T10:42:31.287Z,1009.92
2022-08-07T10:43:29.817Z,1009.96
2022-08-07T10:44:37.383Z,1009.96
2022-08-07T10:45:44.102Z,1009.96
2022-08-07T10:46:23.905Z,1010.00
2022-08-07T10:47:27.061Z,1010.00
2022-08-07T10:48:23.926Z,1009.99
2022-08-07T10:49:24.732Z,1010.00
2022-08-07T10:50:25.808Z,1009.99
2022-08-07T10:51:39.102Z,1010.02
2022-08-07T10:52:31.924Z,1010.00
2022-08-07T10:53:23.852Z,1009.96
2022-08-07T10:54:23.833Z,1009.96
2022-08-07T10:55:38.753Z,1009.98
2022-08-07T10:56:31.506Z,1010.00
2022-08-07T10:57:34.295Z,1009.99
2022-08-07T10:58:25.022Z,1009.94
2022-08-07T10:59:23.786Z,1009.99
2022-08-07T11:00:39.259Z,1009.94
2022-08-07T11:01:23.975Z,1009.96
2022-08-07T11:02:33.130Z,1009.95
2022-08-07T11:03:23.769Z,1009.91
2022-08-07T11:04:32.043Z,1009.94
2022-08-07T11:05:24.153Z,1009.99
2022-08-07T11:06:23.779Z,1009.96
2022-08-07T11:07:56.347Z,1009.96
2022-08-07T11:08:23.697Z,1009.96
2022-08-07T11:10:07.425Z,1009.99
2022-08-07T11:10:24.256Z,1009.97
2022-08-07T11:11:23.721Z,1009.93
2022-08-07T11:12:31.977Z,1009.92
2022-08-07T11:14:42.321Z,1009.94
2022-08-07T11:14:46.407Z,1009.92
2022-08-07T11:15:26.284Z,1009.94
2022-08-07T11:16:29.699Z,1009.89
2022-08-07T11:17:43.489Z,1009.94
2022-08-07T11:18:24.499Z,1009.88
2022-08-07T11:19:27.049Z,1009.91
2022-08-07T11:20:24.536Z,1009.89
2022-08-07T11:21:23.577Z,1009.91
2022-08-07T11:22:33.248Z,1009.90
2022-08-07T11:23:30.336Z,1009.94
2022-08-07T11:24:23.552Z,1009.91
2022-08-07T11:25:23.521Z,1009.87
2022-08-07T11:26:23.514Z,1009.80
2022-08-07T11:28:00.887Z,1009.87
2022-08-07T11:28:24.673Z,1009.82
2022-08-07T11:29:42.213Z,1009.83
2022-08-07T11:30:29.078Z,1009.85
2022-08-07T11:31:23.469Z,1009.84
2022-08-07T11:32:25.344Z,1009.84
2022-08-07T11:33:59.730Z,1009.80
2022-08-07T11:34:23.508Z,1009.80
2022-08-07T11:35:25.053Z,1009.87
2022-08-07T11:36:25.358Z,1009.85
2022-08-07T11:37:24.316Z,1009.79
2022-08-07T11:38:28.190Z,1009.82
2022-08-07T11:39:23.461Z,1009.79
2022-08-07T11:40:23.432Z,1009.91
2022-08-07T11:41:28.328Z,1009.88
2022-08-07T11:42:23.357Z,1009.88
2022-08-07T11:43:41.304Z,1009.86
2022-08-07T11:44:23.329Z,1009.83
2022-08-07T11:45:35.309Z,1009.82
2022-08-07T11:46:23.396Z,1009.82
2022-08-07T11:47:23.297Z,1009.84
2022-08-07T11:48:29.740Z,1009.80
2022-08-07T11:49:50.195Z,1009.79
2022-08-07T11:50:32.014Z,1009.89
2022-08-07T11:51:44.605Z,1009.82
2022-08-07T11:52:28.999Z,1009.83
2022-08-07T11:53:23.263Z,1009.87
2022-08-07T11:54:25.400Z,1009.80
2022-08-07T11:56:09.253Z,1009.85
2022-08-07T11:56:26.671Z,1009.78
2022-08-07T11:57:57.877Z,1009.83
2022-08-07T11:58:33.229Z,1009.83
2022-08-07T12:00:10.576Z,1009.86
2022-08-07T12:00:28.266Z,1009.82
2022-08-07T12:01:23.162Z,1009.85
2022-08-07T12:02:30.494Z,1009.83
2022-08-07T12:03:42.118Z,1009.87
2022-08-07T12:04:23.152Z,1009.87
2022-08-07T12:05:41.608Z,1009.78